Stewart, Minnesota
Current Conditions -  °F | °C
As of 2:52 PM on Friday 19 Dec 2014 (Local Time) from KHCD Reporting Station
Haze Haze  
Wind Chill: 26°   Ceiling: 800
Heat Index: 32°   Visibility: 4mi
Dew Point: 29°   Wind: 6mph
Humidity: 91%   Direction: 140°SE
Pressure: 30.14"   Gusts: NA
Location:  44.72°N, 94.49°W
Report Text: KHCD 192052Z AUTO 14005KT 4SM BR OVC008 00/M01 A3014 RMK AO2 T10021015
Loading
Personal Weather Stations






























Interactive Weather Map New forecast layout! Learn more

10-Day Weather Forecast

Advertisements
Track Severe Weather on mobile